עמוד ראשי
METAR-TAF:

METAR-TAF

שדות תעופה :

Dillingham, אלסקה, ארצות הברית

קו רוחב: 59-03N, קו אורך: 158-31W, גובה: 26מטר

תצפית מזג אוויר נוכחית

הדו"ח נערך לפני 40דקות, בשעה 19:56 UTC
רוח 6קשר מכיוון דרום
טמפרטורת 13 צלסיוס
לחות 67%
לחץ 1017 hPa
ראות: 16.1קילומטר
שמיים נקיים

METAR: PADL 171956Z 19006KT 10SM CLR 13/07 A3004 RMK AO2 SLP173 T01280067

זמן: 12:36 (20:36 UTC)

תחזית

הדו"ח נערך לפני 2 שעות ו 57דקות, בשעה 17:39 UTC
תחזית בתוקף מ 17 ב 18 UTC עד 18 ב 18 UTC
רוח 5קשר מכיוון דרום
ראות: 10קילומטר
עננים פזורים בגובה 8000רגל
מ 18 ב 0400UTC
רוח 4קשר מכיוון דרום-מזרח
ראות: 10קילומטר
מעונן בגובה 10000רגל

TAF: PADL 171739Z 1718/1818 18005KT P6SM SCT080 FM180400 13004KT P6SM OVC100

תצפיות ותחזיות מזג אוויר לגבי יותר מ- 4,000 שדות תעופה ברחבי העולם. דוחות METAR ו- TAF.

התחנות הזמינות מסומנות בנקודות צהובות ואדומות על גבי המפה.

העבר את העכבר לנקודה הצבעונית על מנת לראות את שם התחנה.

לאחר מכן, לחץ כדי לראות את תוכן ואת תחזיות מזג האוויר.

כדי לשנות את המפה: לחץ על הכפתורים הירוקים עם הפלוס השחור כדי להתקרב; על הכפתור הירוק עם המקף כדי להתרחק; או בחיצים הירוקים למפות סמוכות.


METAR-TAF: